sensor_id;sensor_type;location;lat;lon;timestamp;P1;durP1;ratioP1;P2;durP2;ratioP2
11984;SDS011;6052;53.246;10.368;2023-12-07T00:00:55;32.20;;;13.07;;
11984;SDS011;6052;53.246;10.368;2023-12-07T00:03:25;34.10;;;13.87;;
11984;SDS011;6052;53.246;10.368;2023-12-07T00:05:57;32.97;;;13.03;;
11984;SDS011;6052;53.246;10.368;2023-12-07T00:08:27;32.67;;;13.07;;
11984;SDS011;6052;53.246;10.368;2023-12-07T00:10:57;31.60;;;14.03;;
11984;SDS011;6052;53.246;10.368;2023-12-07T00:13:27;32.53;;;13.30;;
11984;SDS011;6052;53.246;10.368;2023-12-07T00:15:57;31.67;;;14.80;;
11984;SDS011;6052;53.246;10.368;2023-12-07T00:18:27;36.73;;;13.77;;
11984;SDS011;6052;53.246;10.368;2023-12-07T00:21:00;32.80;;;14.27;;
11984;SDS011;6052;53.246;10.368;2023-12-07T00:23:30;29.07;;;13.07;;
11984;SDS011;6052;53.246;10.368;2023-12-07T00:26:00;31.37;;;15.00;;
11984;SDS011;6052;53.246;10.368;2023-12-07T00:28:32;33.53;;;13.03;;
11984;SDS011;6052;53.246;10.368;2023-12-07T00:31:02;29.87;;;13.20;;
11984;SDS011;6052;53.246;10.368;2023-12-07T00:33:32;31.50;;;12.70;;
11984;SDS011;6052;53.246;10.368;2023-12-07T00:36:05;28.83;;;15.03;;
11984;SDS011;6052;53.246;10.368;2023-12-07T00:38:36;28.63;;;13.97;;
11984;SDS011;6052;53.246;10.368;2023-12-07T00:41:06;27.03;;;13.17;;
11984;SDS011;6052;53.246;10.368;2023-12-07T00:43:37;27.10;;;13.33;;
11984;SDS011;6052;53.246;10.368;2023-12-07T00:46:07;32.33;;;13.53;;
11984;SDS011;6052;53.246;10.368;2023-12-07T00:48:37;30.33;;;13.13;;
11984;SDS011;6052;53.246;10.368;2023-12-07T00:51:10;29.13;;;14.00;;
11984;SDS011;6052;53.246;10.368;2023-12-07T00:53:41;30.97;;;13.17;;
11984;SDS011;6052;53.246;10.368;2023-12-07T00:56:11;26.43;;;13.50;;
11984;SDS011;6052;53.246;10.368;2023-12-07T00:58:42;32.47;;;13.50;;
11984;SDS011;6052;53.246;10.368;2023-12-07T01:01:12;32.23;;;13.73;;
11984;SDS011;6052;53.246;10.368;2023-12-07T01:03:43;28.30;;;13.40;;
11984;SDS011;6052;53.246;10.368;2023-12-07T01:06:16;28.40;;;13.23;;
11984;SDS011;6052;53.246;10.368;2023-12-07T01:08:47;32.43;;;13.13;;
11984;SDS011;6052;53.246;10.368;2023-12-07T01:11:17;26.93;;;12.27;;
11984;SDS011;6052;53.246;10.368;2023-12-07T01:13:47;27.73;;;14.13;;
11984;SDS011;6052;53.246;10.368;2023-12-07T01:16:18;24.13;;;12.47;;
11984;SDS011;6052;53.246;10.368;2023-12-07T01:18:50;25.20;;;11.83;;
11984;SDS011;6052;53.246;10.368;2023-12-07T01:24:42;28.90;;;12.00;;
11984;SDS011;6052;53.246;10.368;2023-12-07T01:27:12;26.57;;;12.47;;
11984;SDS011;6052;53.246;10.368;2023-12-07T01:29:43;26.73;;;13.50;;
11984;SDS011;6052;53.246;10.368;2023-12-07T01:32:13;23.13;;;11.87;;
11984;SDS011;6052;53.246;10.368;2023-12-07T01:34:45;25.37;;;12.80;;
11984;SDS011;6052;53.246;10.368;2023-12-07T01:37:18;23.50;;;11.30;;
11984;SDS011;6052;53.246;10.368;2023-12-07T01:40:15;23.47;;;11.60;;
11984;SDS011;6052;53.246;10.368;2023-12-07T01:42:49;25.40;;;12.03;;
11984;SDS011;6052;53.246;10.368;2023-12-07T01:45:32;22.47;;;11.67;;
11984;SDS011;6052;53.246;10.368;2023-12-07T01:48:03;24.13;;;11.47;;
11984;SDS011;6052;53.246;10.368;2023-12-07T01:50:58;25.43;;;12.17;;
11984;SDS011;6052;53.246;10.368;2023-12-07T01:53:32;25.83;;;11.93;;
11984;SDS011;6052;53.246;10.368;2023-12-07T01:56:04;23.73;;;10.83;;
11984;SDS011;6052;53.246;10.368;2023-12-07T01:58:40;25.70;;;12.40;;
11984;SDS011;6052;53.246;10.368;2023-12-07T02:01:11;25.90;;;11.97;;
11984;SDS011;6052;53.246;10.368;2023-12-07T02:03:42;21.97;;;11.60;;
11984;SDS011;6052;53.246;10.368;2023-12-07T02:06:13;26.10;;;12.47;;
11984;SDS011;6052;53.246;10.368;2023-12-07T02:08:45;25.63;;;11.97;;
11984;SDS011;6052;53.246;10.368;2023-12-07T02:11:15;25.57;;;12.27;;
11984;SDS011;6052;53.246;10.368;2023-12-07T02:13:45;27.13;;;11.67;;
11984;SDS011;6052;53.246;10.368;2023-12-07T02:16:17;27.43;;;13.10;;
11984;SDS011;6052;53.246;10.368;2023-12-07T02:18:55;24.20;;;11.57;;
11984;SDS011;6052;53.246;10.368;2023-12-07T02:21:34;26.47;;;12.57;;
11984;SDS011;6052;53.246;10.368;2023-12-07T02:24:10;26.17;;;13.00;;
11984;SDS011;6052;53.246;10.368;2023-12-07T02:26:47;28.20;;;12.77;;
11984;SDS011;6052;53.246;10.368;2023-12-07T02:29:17;34.37;;;13.97;;
11984;SDS011;6052;53.246;10.368;2023-12-07T02:31:47;33.20;;;13.57;;
11984;SDS011;6052;53.246;10.368;2023-12-07T02:34:17;37.87;;;14.83;;
11984;SDS011;6052;53.246;10.368;2023-12-07T02:36:47;29.87;;;13.87;;
11984;SDS011;6052;53.246;10.368;2023-12-07T02:39:20;36.30;;;14.77;;
11984;SDS011;6052;53.246;10.368;2023-12-07T02:41:53;34.40;;;13.97;;
11984;SDS011;6052;53.246;10.368;2023-12-07T02:44:24;33.07;;;13.40;;
11984;SDS011;6052;53.246;10.368;2023-12-07T02:46:55;42.47;;;14.80;;
11984;SDS011;6052;53.246;10.368;2023-12-07T02:49:24;34.23;;;14.37;;
11984;SDS011;6052;53.246;10.368;2023-12-07T02:51:54;33.73;;;13.97;;
11984;SDS011;6052;53.246;10.368;2023-12-07T02:54:24;41.77;;;14.37;;
11984;SDS011;6052;53.246;10.368;2023-12-07T02:56:57;39.47;;;14.77;;
11984;SDS011;6052;53.246;10.368;2023-12-07T02:59:26;36.97;;;15.50;;
11984;SDS011;6052;53.246;10.368;2023-12-07T03:01:59;40.47;;;14.33;;
11984;SDS011;6052;53.246;10.368;2023-12-07T03:04:29;47.30;;;15.53;;
11984;SDS011;6052;53.246;10.368;2023-12-07T03:06:59;42.73;;;15.13;;
11984;SDS011;6052;53.246;10.368;2023-12-07T03:09:29;33.17;;;13.67;;
11984;SDS011;6052;53.246;10.368;2023-12-07T03:12:02;31.87;;;14.47;;
11984;SDS011;6052;53.246;10.368;2023-12-07T03:14:35;44.43;;;15.20;;
11984;SDS011;6052;53.246;10.368;2023-12-07T03:17:09;37.30;;;15.30;;
11984;SDS011;6052;53.246;10.368;2023-12-07T03:19:40;41.60;;;15.77;;
11984;SDS011;6052;53.246;10.368;2023-12-07T03:22:11;42.63;;;16.27;;
11984;SDS011;6052;53.246;10.368;2023-12-07T03:24:46;42.27;;;15.90;;
11984;SDS011;6052;53.246;10.368;2023-12-07T03:27:23;46.23;;;16.67;;
11984;SDS011;6052;53.246;10.368;2023-12-07T03:29:54;38.67;;;14.30;;
11984;SDS011;6052;53.246;10.368;2023-12-07T03:32:24;40.47;;;15.40;;
11984;SDS011;6052;53.246;10.368;2023-12-07T03:34:54;38.40;;;15.70;;
11984;SDS011;6052;53.246;10.368;2023-12-07T03:37:24;31.37;;;13.70;;
11984;SDS011;6052;53.246;10.368;2023-12-07T03:39:53;40.80;;;15.23;;
11984;SDS011;6052;53.246;10.368;2023-12-07T03:42:26;42.63;;;14.93;;
11984;SDS011;6052;53.246;10.368;2023-12-07T03:45:16;35.57;;;13.93;;
11984;SDS011;6052;53.246;10.368;2023-12-07T03:47:46;39.47;;;13.77;;
11984;SDS011;6052;53.246;10.368;2023-12-07T03:50:16;36.50;;;14.73;;
11984;SDS011;6052;53.246;10.368;2023-12-07T03:52:46;37.07;;;16.17;;
11984;SDS011;6052;53.246;10.368;2023-12-07T03:55:16;36.00;;;14.53;;
11984;SDS011;6052;53.246;10.368;2023-12-07T03:57:49;33.43;;;14.60;;
11984;SDS011;6052;53.246;10.368;2023-12-07T04:00:19;40.10;;;14.87;;
11984;SDS011;6052;53.246;10.368;2023-12-07T04:02:49;37.97;;;15.17;;
11984;SDS011;6052;53.246;10.368;2023-12-07T04:05:19;35.97;;;14.47;;
11984;SDS011;6052;53.246;10.368;2023-12-07T04:07:50;32.43;;;14.30;;
11984;SDS011;6052;53.246;10.368;2023-12-07T04:10:20;30.67;;;14.07;;
11984;SDS011;6052;53.246;10.368;2023-12-07T04:12:52;39.73;;;14.87;;
11984;SDS011;6052;53.246;10.368;2023-12-07T04:15:23;35.23;;;13.30;;
11984;SDS011;6052;53.246;10.368;2023-12-07T04:17:54;31.40;;;13.57;;
11984;SDS011;6052;53.246;10.368;2023-12-07T04:20:24;32.80;;;15.00;;
11984;SDS011;6052;53.246;10.368;2023-12-07T04:22:55;33.17;;;13.93;;
11984;SDS011;6052;53.246;10.368;2023-12-07T04:25:25;39.03;;;14.77;;
11984;SDS011;6052;53.246;10.368;2023-12-07T04:27:58;39.73;;;15.00;;
11984;SDS011;6052;53.246;10.368;2023-12-07T04:30:28;38.17;;;14.13;;
11984;SDS011;6052;53.246;10.368;2023-12-07T04:32:58;34.47;;;13.73;;
11984;SDS011;6052;53.246;10.368;2023-12-07T04:35:28;38.90;;;15.63;;
11984;SDS011;6052;53.246;10.368;2023-12-07T04:37:58;32.23;;;13.93;;
11984;SDS011;6052;53.246;10.368;2023-12-07T04:40:28;33.50;;;13.83;;
11984;SDS011;6052;53.246;10.368;2023-12-07T04:43:00;37.27;;;14.80;;
11984;SDS011;6052;53.246;10.368;2023-12-07T04:45:30;38.23;;;14.70;;
11984;SDS011;6052;53.246;10.368;2023-12-07T04:48:00;37.53;;;14.23;;
11984;SDS011;6052;53.246;10.368;2023-12-07T04:50:31;34.67;;;14.30;;
11984;SDS011;6052;53.246;10.368;2023-12-07T04:53:01;34.70;;;14.87;;
11984;SDS011;6052;53.246;10.368;2023-12-07T04:55:31;34.17;;;14.23;;
11984;SDS011;6052;53.246;10.368;2023-12-07T04:58:05;29.40;;;13.40;;
11984;SDS011;6052;53.246;10.368;2023-12-07T05:00:36;35.13;;;14.50;;
11984;SDS011;6052;53.246;10.368;2023-12-07T05:03:07;31.33;;;14.67;;
11984;SDS011;6052;53.246;10.368;2023-12-07T05:05:37;33.03;;;13.87;;
11984;SDS011;6052;53.246;10.368;2023-12-07T05:08:07;32.80;;;14.57;;
11984;SDS011;6052;53.246;10.368;2023-12-07T05:10:37;31.67;;;13.50;;
11984;SDS011;6052;53.246;10.368;2023-12-07T05:13:10;31.37;;;14.73;;
11984;SDS011;6052;53.246;10.368;2023-12-07T05:15:40;38.67;;;14.83;;
11984;SDS011;6052;53.246;10.368;2023-12-07T05:18:13;36.67;;;15.03;;
11984;SDS011;6052;53.246;10.368;2023-12-07T05:20:43;32.00;;;14.30;;
11984;SDS011;6052;53.246;10.368;2023-12-07T05:23:13;32.23;;;14.20;;
11984;SDS011;6052;53.246;10.368;2023-12-07T05:25:44;38.13;;;14.23;;
11984;SDS011;6052;53.246;10.368;2023-12-07T05:28:16;31.00;;;13.93;;
11984;SDS011;6052;53.246;10.368;2023-12-07T05:30:47;29.83;;;13.23;;
11984;SDS011;6052;53.246;10.368;2023-12-07T05:33:17;30.90;;;15.10;;
11984;SDS011;6052;53.246;10.368;2023-12-07T05:35:47;35.77;;;16.57;;
11984;SDS011;6052;53.246;10.368;2023-12-07T05:38:17;42.57;;;15.67;;
11984;SDS011;6052;53.246;10.368;2023-12-07T05:40:47;35.03;;;15.23;;
11984;SDS011;6052;53.246;10.368;2023-12-07T05:43:19;40.40;;;16.00;;
11984;SDS011;6052;53.246;10.368;2023-12-07T05:45:49;41.33;;;16.03;;
11984;SDS011;6052;53.246;10.368;2023-12-07T05:48:19;33.80;;;14.97;;
11984;SDS011;6052;53.246;10.368;2023-12-07T05:50:49;35.77;;;15.63;;
11984;SDS011;6052;53.246;10.368;2023-12-07T05:53:20;36.03;;;15.00;;
11984;SDS011;6052;53.246;10.368;2023-12-07T05:55:50;40.17;;;16.00;;
11984;SDS011;6052;53.246;10.368;2023-12-07T05:58:23;33.07;;;14.97;;
11984;SDS011;6052;53.246;10.368;2023-12-07T06:00:53;32.60;;;14.50;;
11984;SDS011;6052;53.246;10.368;2023-12-07T06:03:24;34.97;;;15.37;;
11984;SDS011;6052;53.246;10.368;2023-12-07T06:05:54;45.70;;;19.57;;
11984;SDS011;6052;53.246;10.368;2023-12-07T06:08:25;37.83;;;17.27;;
11984;SDS011;6052;53.246;10.368;2023-12-07T06:10:55;41.57;;;16.40;;
11984;SDS011;6052;53.246;10.368;2023-12-07T06:13:27;36.53;;;15.40;;
11984;SDS011;6052;53.246;10.368;2023-12-07T06:15:57;37.13;;;15.60;;
11984;SDS011;6052;53.246;10.368;2023-12-07T06:18:27;35.40;;;15.57;;
11984;SDS011;6052;53.246;10.368;2023-12-07T06:20:57;36.73;;;14.90;;
11984;SDS011;6052;53.246;10.368;2023-12-07T06:23:30;36.97;;;14.93;;
11984;SDS011;6052;53.246;10.368;2023-12-07T06:26:02;36.33;;;15.07;;
11984;SDS011;6052;53.246;10.368;2023-12-07T06:28:34;35.10;;;14.70;;
11984;SDS011;6052;53.246;10.368;2023-12-07T06:31:04;34.03;;;14.90;;
11984;SDS011;6052;53.246;10.368;2023-12-07T06:33:35;33.47;;;14.87;;
11984;SDS011;6052;53.246;10.368;2023-12-07T06:36:06;34.93;;;14.10;;
11984;SDS011;6052;53.246;10.368;2023-12-07T06:38:36;38.70;;;15.57;;
11984;SDS011;6052;53.246;10.368;2023-12-07T06:41:06;37.37;;;15.73;;
11984;SDS011;6052;53.246;10.368;2023-12-07T06:43:39;31.83;;;14.63;;
11984;SDS011;6052;53.246;10.368;2023-12-07T06:46:11;32.73;;;15.53;;
11984;SDS011;6052;53.246;10.368;2023-12-07T06:48:42;33.93;;;16.33;;
11984;SDS011;6052;53.246;10.368;2023-12-07T06:51:12;31.73;;;14.97;;
11984;SDS011;6052;53.246;10.368;2023-12-07T06:53:43;39.70;;;14.90;;
11984;SDS011;6052;53.246;10.368;2023-12-07T06:56:13;28.30;;;14.17;;
11984;SDS011;6052;53.246;10.368;2023-12-07T06:58:48;31.50;;;15.43;;
11984;SDS011;6052;53.246;10.368;2023-12-07T07:01:17;29.87;;;15.10;;
11984;SDS011;6052;53.246;10.368;2023-12-07T07:03:47;30.57;;;14.83;;
11984;SDS011;6052;53.246;10.368;2023-12-07T07:06:17;30.63;;;15.10;;
11984;SDS011;6052;53.246;10.368;2023-12-07T07:08:47;29.97;;;14.03;;
11984;SDS011;6052;53.246;10.368;2023-12-07T07:11:17;32.13;;;16.00;;
11984;SDS011;6052;53.246;10.368;2023-12-07T07:13:49;32.33;;;15.20;;
11984;SDS011;6052;53.246;10.368;2023-12-07T07:16:19;31.70;;;15.30;;
11984;SDS011;6052;53.246;10.368;2023-12-07T07:18:49;30.13;;;15.13;;
11984;SDS011;6052;53.246;10.368;2023-12-07T07:21:19;29.87;;;15.07;;
11984;SDS011;6052;53.246;10.368;2023-12-07T07:23:49;27.40;;;15.60;;
11984;SDS011;6052;53.246;10.368;2023-12-07T07:26:19;28.43;;;14.80;;
11984;SDS011;6052;53.246;10.368;2023-12-07T07:28:51;27.57;;;15.17;;
11984;SDS011;6052;53.246;10.368;2023-12-07T07:31:22;30.23;;;14.97;;
11984;SDS011;6052;53.246;10.368;2023-12-07T07:33:52;28.23;;;14.87;;
11984;SDS011;6052;53.246;10.368;2023-12-07T07:36:27;29.47;;;15.33;;
11984;SDS011;6052;53.246;10.368;2023-12-07T07:38:57;28.23;;;15.53;;
11984;SDS011;6052;53.246;10.368;2023-12-07T07:41:27;31.67;;;14.97;;
11984;SDS011;6052;53.246;10.368;2023-12-07T07:43:59;30.23;;;15.23;;
11984;SDS011;6052;53.246;10.368;2023-12-07T07:46:30;29.60;;;14.70;;
11984;SDS011;6052;53.246;10.368;2023-12-07T07:49:00;30.63;;;14.73;;
11984;SDS011;6052;53.246;10.368;2023-12-07T07:51:30;29.60;;;15.47;;
11984;SDS011;6052;53.246;10.368;2023-12-07T07:54:00;28.30;;;15.20;;
11984;SDS011;6052;53.246;10.368;2023-12-07T07:56:30;30.83;;;15.17;;
11984;SDS011;6052;53.246;10.368;2023-12-07T07:59:03;32.87;;;16.43;;
11984;SDS011;6052;53.246;10.368;2023-12-07T08:01:33;33.27;;;16.53;;
11984;SDS011;6052;53.246;10.368;2023-12-07T08:04:03;36.20;;;15.90;;
11984;SDS011;6052;53.246;10.368;2023-12-07T08:06:34;36.63;;;16.07;;
11984;SDS011;6052;53.246;10.368;2023-12-07T08:09:04;31.97;;;16.17;;
11984;SDS011;6052;53.246;10.368;2023-12-07T08:11:34;33.20;;;16.27;;
11984;SDS011;6052;53.246;10.368;2023-12-07T08:14:06;28.23;;;14.70;;
11984;SDS011;6052;53.246;10.368;2023-12-07T08:16:36;30.37;;;15.53;;
11984;SDS011;6052;53.246;10.368;2023-12-07T08:19:06;30.60;;;15.47;;
11984;SDS011;6052;53.246;10.368;2023-12-07T08:21:36;32.73;;;15.47;;
11984;SDS011;6052;53.246;10.368;2023-12-07T08:24:06;30.53;;;15.27;;
11984;SDS011;6052;53.246;10.368;2023-12-07T08:26:37;32.27;;;15.27;;
11984;SDS011;6052;53.246;10.368;2023-12-07T08:29:10;26.37;;;14.30;;
11984;SDS011;6052;53.246;10.368;2023-12-07T08:31:40;32.37;;;15.87;;
11984;SDS011;6052;53.246;10.368;2023-12-07T08:34:10;32.63;;;15.37;;
11984;SDS011;6052;53.246;10.368;2023-12-07T08:36:40;29.33;;;14.27;;
11984;SDS011;6052;53.246;10.368;2023-12-07T08:39:10;27.33;;;14.07;;
11984;SDS011;6052;53.246;10.368;2023-12-07T08:41:40;30.43;;;15.10;;
11984;SDS011;6052;53.246;10.368;2023-12-07T08:44:12;30.07;;;14.77;;
11984;SDS011;6052;53.246;10.368;2023-12-07T08:46:42;32.17;;;14.43;;
11984;SDS011;6052;53.246;10.368;2023-12-07T08:49:13;27.93;;;14.03;;
11984;SDS011;6052;53.246;10.368;2023-12-07T08:51:43;29.17;;;15.13;;
11984;SDS011;6052;53.246;10.368;2023-12-07T08:54:32;30.43;;;13.83;;
11984;SDS011;6052;53.246;10.368;2023-12-07T08:57:03;26.43;;;14.63;;
11984;SDS011;6052;53.246;10.368;2023-12-07T08:59:36;29.57;;;14.47;;
11984;SDS011;6052;53.246;10.368;2023-12-07T09:02:06;28.90;;;14.40;;
11984;SDS011;6052;53.246;10.368;2023-12-07T09:04:36;29.07;;;15.00;;
11984;SDS011;6052;53.246;10.368;2023-12-07T09:07:06;28.03;;;14.23;;
11984;SDS011;6052;53.246;10.368;2023-12-07T09:09:38;31.50;;;14.80;;
11984;SDS011;6052;53.246;10.368;2023-12-07T09:12:13;32.17;;;14.70;;
11984;SDS011;6052;53.246;10.368;2023-12-07T09:14:52;27.00;;;14.20;;
11984;SDS011;6052;53.246;10.368;2023-12-07T09:17:22;27.33;;;14.33;;
11984;SDS011;6052;53.246;10.368;2023-12-07T09:19:52;31.63;;;16.87;;
11984;SDS011;6052;53.246;10.368;2023-12-07T09:22:22;36.37;;;16.70;;
11984;SDS011;6052;53.246;10.368;2023-12-07T09:25:02;32.40;;;14.90;;
11984;SDS011;6052;53.246;10.368;2023-12-07T09:27:34;33.03;;;15.50;;
11984;SDS011;6052;53.246;10.368;2023-12-07T09:30:07;27.63;;;14.90;;
11984;SDS011;6052;53.246;10.368;2023-12-07T09:32:39;32.30;;;15.37;;
11984;SDS011;6052;53.246;10.368;2023-12-07T09:35:11;36.80;;;16.90;;
11984;SDS011;6052;53.246;10.368;2023-12-07T09:37:47;34.83;;;16.17;;
11984;SDS011;6052;53.246;10.368;2023-12-07T09:40:18;36.00;;;15.73;;
11984;SDS011;6052;53.246;10.368;2023-12-07T09:42:51;34.23;;;16.13;;
11984;SDS011;6052;53.246;10.368;2023-12-07T09:45:23;35.47;;;16.53;;
11984;SDS011;6052;53.246;10.368;2023-12-07T09:47:55;33.37;;;17.13;;
11984;SDS011;6052;53.246;10.368;2023-12-07T09:50:25;32.33;;;16.17;;
11984;SDS011;6052;53.246;10.368;2023-12-07T09:52:56;32.43;;;15.77;;
11984;SDS011;6052;53.246;10.368;2023-12-07T09:55:34;29.93;;;15.57;;
11984;SDS011;6052;53.246;10.368;2023-12-07T09:58:05;36.20;;;16.87;;
11984;SDS011;6052;53.246;10.368;2023-12-07T10:00:38;34.63;;;15.33;;
11984;SDS011;6052;53.246;10.368;2023-12-07T10:03:08;33.70;;;15.30;;
11984;SDS011;6052;53.246;10.368;2023-12-07T10:05:55;36.00;;;19.13;;
11984;SDS011;6052;53.246;10.368;2023-12-07T10:08:27;35.30;;;15.23;;
11984;SDS011;6052;53.246;10.368;2023-12-07T10:11:04;33.80;;;17.43;;
11984;SDS011;6052;53.246;10.368;2023-12-07T10:13:36;30.10;;;15.43;;
11984;SDS011;6052;53.246;10.368;2023-12-07T10:16:12;32.83;;;15.33;;
11984;SDS011;6052;53.246;10.368;2023-12-07T10:18:44;28.97;;;15.60;;
11984;SDS011;6052;53.246;10.368;2023-12-07T10:21:16;31.40;;;15.30;;
11984;SDS011;6052;53.246;10.368;2023-12-07T10:24:00;30.17;;;15.30;;
11984;SDS011;6052;53.246;10.368;2023-12-07T10:26:30;29.63;;;15.07;;
11984;SDS011;6052;53.246;10.368;2023-12-07T10:29:04;28.60;;;14.73;;
11984;SDS011;6052;53.246;10.368;2023-12-07T10:31:45;29.53;;;15.30;;
11984;SDS011;6052;53.246;10.368;2023-12-07T10:34:17;31.37;;;16.27;;
11984;SDS011;6052;53.246;10.368;2023-12-07T10:36:47;30.03;;;14.97;;
11984;SDS011;6052;53.246;10.368;2023-12-07T10:39:19;28.70;;;14.63;;
11984;SDS011;6052;53.246;10.368;2023-12-07T10:42:02;29.43;;;14.97;;
11984;SDS011;6052;53.246;10.368;2023-12-07T10:44:35;30.07;;;15.10;;
11984;SDS011;6052;53.246;10.368;2023-12-07T10:47:13;26.30;;;14.43;;
11984;SDS011;6052;53.246;10.368;2023-12-07T10:49:44;27.03;;;14.10;;
11984;SDS011;6052;53.246;10.368;2023-12-07T10:52:18;29.60;;;15.17;;
11984;SDS011;6052;53.246;10.368;2023-12-07T10:54:54;28.30;;;15.67;;
11984;SDS011;6052;53.246;10.368;2023-12-07T10:57:32;25.77;;;13.70;;
11984;SDS011;6052;53.246;10.368;2023-12-07T11:00:04;29.23;;;15.50;;
11984;SDS011;6052;53.246;10.368;2023-12-07T11:02:39;25.40;;;14.20;;
11984;SDS011;6052;53.246;10.368;2023-12-07T11:05:10;27.30;;;14.10;;
11984;SDS011;6052;53.246;10.368;2023-12-07T11:07:47;24.40;;;13.77;;
11984;SDS011;6052;53.246;10.368;2023-12-07T11:10:22;26.17;;;13.60;;
11984;SDS011;6052;53.246;10.368;2023-12-07T11:12:59;25.87;;;13.53;;
11984;SDS011;6052;53.246;10.368;2023-12-07T11:15:36;29.10;;;14.97;;
11984;SDS011;6052;53.246;10.368;2023-12-07T11:18:09;24.97;;;13.70;;
11984;SDS011;6052;53.246;10.368;2023-12-07T11:20:41;26.80;;;14.23;;
11984;SDS011;6052;53.246;10.368;2023-12-07T11:23:15;24.03;;;13.53;;
11984;SDS011;6052;53.246;10.368;2023-12-07T11:25:47;24.90;;;14.03;;
11984;SDS011;6052;53.246;10.368;2023-12-07T11:28:17;25.60;;;13.07;;
11984;SDS011;6052;53.246;10.368;2023-12-07T11:30:47;24.70;;;14.43;;
11984;SDS011;6052;53.246;10.368;2023-12-07T11:33:22;25.37;;;12.53;;
11984;SDS011;6052;53.246;10.368;2023-12-07T11:36:05;25.40;;;13.77;;
11984;SDS011;6052;53.246;10.368;2023-12-07T11:38:37;25.00;;;12.70;;
11984;SDS011;6052;53.246;10.368;2023-12-07T11:41:07;23.47;;;12.70;;
11984;SDS011;6052;53.246;10.368;2023-12-07T11:43:42;25.43;;;12.93;;
11984;SDS011;6052;53.246;10.368;2023-12-07T11:46:16;24.97;;;13.03;;
11984;SDS011;6052;53.246;10.368;2023-12-07T11:48:49;25.60;;;13.90;;
11984;SDS011;6052;53.246;10.368;2023-12-07T11:51:19;22.60;;;13.03;;
11984;SDS011;6052;53.246;10.368;2023-12-07T11:53:49;22.10;;;12.73;;
11984;SDS011;6052;53.246;10.368;2023-12-07T11:56:19;22.73;;;12.43;;
11984;SDS011;6052;53.246;10.368;2023-12-07T11:58:49;21.37;;;12.73;;
11984;SDS011;6052;53.246;10.368;2023-12-07T12:01:19;24.27;;;13.00;;
11984;SDS011;6052;53.246;10.368;2023-12-07T12:03:53;20.73;;;12.00;;
11984;SDS011;6052;53.246;10.368;2023-12-07T12:06:25;23.13;;;13.00;;
11984;SDS011;6052;53.246;10.368;2023-12-07T12:08:55;23.87;;;12.90;;
11984;SDS011;6052;53.246;10.368;2023-12-07T12:11:25;24.17;;;12.30;;
11984;SDS011;6052;53.246;10.368;2023-12-07T12:13:55;22.13;;;12.83;;
11984;SDS011;6052;53.246;10.368;2023-12-07T12:16:25;23.83;;;12.47;;
11984;SDS011;6052;53.246;10.368;2023-12-07T12:18:58;24.50;;;13.33;;
11984;SDS011;6052;53.246;10.368;2023-12-07T12:21:28;25.77;;;13.10;;
11984;SDS011;6052;53.246;10.368;2023-12-07T12:23:57;25.40;;;13.17;;
11984;SDS011;6052;53.246;10.368;2023-12-07T12:26:27;19.47;;;11.57;;
11984;SDS011;6052;53.246;10.368;2023-12-07T12:28:58;22.47;;;13.27;;
11984;SDS011;6052;53.246;10.368;2023-12-07T12:31:28;23.13;;;13.47;;
11984;SDS011;6052;53.246;10.368;2023-12-07T12:34:03;20.07;;;12.47;;
11984;SDS011;6052;53.246;10.368;2023-12-07T12:36:39;23.23;;;12.33;;
11984;SDS011;6052;53.246;10.368;2023-12-07T12:39:09;22.43;;;12.40;;
11984;SDS011;6052;53.246;10.368;2023-12-07T12:41:53;20.00;;;11.23;;
11984;SDS011;6052;53.246;10.368;2023-12-07T12:44:23;19.67;;;11.63;;
11984;SDS011;6052;53.246;10.368;2023-12-07T12:47:03;19.90;;;11.27;;
11984;SDS011;6052;53.246;10.368;2023-12-07T12:49:39;21.30;;;12.70;;
11984;SDS011;6052;53.246;10.368;2023-12-07T12:52:14;21.20;;;11.83;;
11984;SDS011;6052;53.246;10.368;2023-12-07T12:54:45;21.13;;;12.43;;
11984;SDS011;6052;53.246;10.368;2023-12-07T12:57:16;19.33;;;12.03;;
11984;SDS011;6052;53.246;10.368;2023-12-07T12:59:46;23.40;;;12.70;;
11984;SDS011;6052;53.246;10.368;2023-12-07T13:02:17;21.93;;;12.67;;
11984;SDS011;6052;53.246;10.368;2023-12-07T13:04:50;20.50;;;11.83;;
11984;SDS011;6052;53.246;10.368;2023-12-07T13:07:20;22.30;;;12.43;;
11984;SDS011;6052;53.246;10.368;2023-12-07T13:09:51;21.43;;;12.67;;
11984;SDS011;6052;53.246;10.368;2023-12-07T13:12:21;23.13;;;12.73;;
11984;SDS011;6052;53.246;10.368;2023-12-07T13:14:54;22.23;;;12.23;;
11984;SDS011;6052;53.246;10.368;2023-12-07T13:17:25;24.13;;;12.53;;
11984;SDS011;6052;53.246;10.368;2023-12-07T13:19:58;19.30;;;12.57;;
11984;SDS011;6052;53.246;10.368;2023-12-07T13:22:28;22.83;;;12.10;;
11984;SDS011;6052;53.246;10.368;2023-12-07T13:24:58;22.33;;;12.30;;
11984;SDS011;6052;53.246;10.368;2023-12-07T13:27:28;23.00;;;12.60;;
11984;SDS011;6052;53.246;10.368;2023-12-07T13:29:59;22.30;;;12.37;;
11984;SDS011;6052;53.246;10.368;2023-12-07T13:32:31;24.60;;;12.87;;
11984;SDS011;6052;53.246;10.368;2023-12-07T13:35:06;22.97;;;12.50;;
11984;SDS011;6052;53.246;10.368;2023-12-07T13:37:37;21.20;;;12.30;;
11984;SDS011;6052;53.246;10.368;2023-12-07T13:40:08;21.37;;;12.43;;
11984;SDS011;6052;53.246;10.368;2023-12-07T13:42:39;20.97;;;12.33;;
11984;SDS011;6052;53.246;10.368;2023-12-07T13:45:09;18.93;;;11.10;;
11984;SDS011;6052;53.246;10.368;2023-12-07T13:47:39;19.87;;;11.63;;
11984;SDS011;6052;53.246;10.368;2023-12-07T13:50:11;20.03;;;11.07;;
11984;SDS011;6052;53.246;10.368;2023-12-07T13:52:41;22.20;;;12.97;;
11984;SDS011;6052;53.246;10.368;2023-12-07T13:55:11;20.67;;;11.50;;
11984;SDS011;6052;53.246;10.368;2023-12-07T13:57:41;22.27;;;11.20;;
11984;SDS011;6052;53.246;10.368;2023-12-07T14:00:11;22.67;;;12.97;;
11984;SDS011;6052;53.246;10.368;2023-12-07T14:02:43;22.00;;;12.17;;
11984;SDS011;6052;53.246;10.368;2023-12-07T14:05:15;21.97;;;11.80;;
11984;SDS011;6052;53.246;10.368;2023-12-07T14:07:48;20.53;;;11.60;;
11984;SDS011;6052;53.246;10.368;2023-12-07T14:10:18;23.33;;;12.50;;
11984;SDS011;6052;53.246;10.368;2023-12-07T14:12:48;22.27;;;12.07;;
11984;SDS011;6052;53.246;10.368;2023-12-07T14:15:18;23.93;;;11.67;;
11984;SDS011;6052;53.246;10.368;2023-12-07T14:18:05;25.97;;;13.40;;
11984;SDS011;6052;53.246;10.368;2023-12-07T14:20:38;24.40;;;13.27;;
11984;SDS011;6052;53.246;10.368;2023-12-07T14:23:30;25.10;;;12.13;;
11984;SDS011;6052;53.246;10.368;2023-12-07T14:26:01;22.00;;;11.63;;
11984;SDS011;6052;53.246;10.368;2023-12-07T14:28:32;21.20;;;12.97;;
11984;SDS011;6052;53.246;10.368;2023-12-07T14:31:03;21.60;;;12.03;;
11984;SDS011;6052;53.246;10.368;2023-12-07T14:33:34;19.77;;;11.23;;
11984;SDS011;6052;53.246;10.368;2023-12-07T14:36:07;22.13;;;11.50;;
11984;SDS011;6052;53.246;10.368;2023-12-07T14:38:39;20.57;;;11.20;;
11984;SDS011;6052;53.246;10.368;2023-12-07T14:41:09;23.70;;;12.57;;
11984;SDS011;6052;53.246;10.368;2023-12-07T14:43:40;21.97;;;11.20;;
11984;SDS011;6052;53.246;10.368;2023-12-07T14:46:09;22.47;;;11.70;;
11984;SDS011;6052;53.246;10.368;2023-12-07T14:48:39;22.63;;;12.13;;
11984;SDS011;6052;53.246;10.368;2023-12-07T14:51:15;27.27;;;12.70;;